Time;durP1;ratioP1;P1;durP2;ratioP2;P2;SDS_P1;SDS_P2;PMS_P1;PMS_P2;Temp;Humidity;BMP_temperature;BMP_pressure;BME280_temperature;BME280_humidity;BME280_pressure;Samples;Min_cycle;Max_cycle;Signal;HPM_P1;HPM_P2
2021/05/29 00:00:55;;;;;;;;;;;;;;;11.12;100.00;99935.41;4979779;28;19926;-81
2021/05/29 00:03:23;;;;;;;;;;;;;;;11.17;100.00;99936.97;4992675;28;20017;-81
2021/05/29 00:05:51;;;;;;;;;;;;;;;10.94;100.00;99955.06;4980151;28;19926;-81
2021/05/29 00:08:19;;;;;;;;;;;;;;;10.82;100.00;99951.91;4988101;28;19933;-81
2021/05/29 00:10:50;;;;;;;;;;;;;;;10.76;100.00;99956.31;4974641;28;19932;-81
2021/05/29 00:13:18;;;;;;;;;;;;;;;10.69;100.00;100012.25;5006040;28;19926;-81
2021/05/29 00:15:47;;;;;;;;;;;;;;;10.59;100.00;100013.03;4998667;28;19926;-81
2021/05/29 00:18:14;;;;;;;;;;;;;;;10.42;100.00;100020.22;4991890;28;19932;-81
2021/05/29 00:20:41;;;;;;;;;;;;;;;10.41;100.00;100026.22;4995109;28;19933;-81
2021/05/29 00:23:09;;;;;;;;;;;;;;;10.39;100.00;100034.22;5027678;28;19949;-81
2021/05/29 00:25:36;;;;;;;;;;;;;;;10.31;100.00;100041.00;4996040;28;19925;-81
2021/05/29 00:28:04;;;;;;;;;;;;;;;10.25;100.00;100048.19;4995221;28;20021;-81
2021/05/29 00:30:32;;;;;;;;;;;;;;;10.19;100.00;100044.97;4984924;28;19960;-81
2021/05/29 00:33:00;;;;;;;;;;;;;;;10.13;100.00;100040.19;4993274;28;19933;-81
2021/05/29 00:35:30;;;;;;;;;;;;;;;9.96;100.00;100047.31;4991086;28;20013;-80
2021/05/29 00:37:58;;;;;;;;;;;;;;;9.88;100.00;100056.03;5016280;28;20409;-80
2021/05/29 00:40:26;;;;;;;;;;;;;;;9.84;100.00;100055.25;4993475;28;19980;-80
2021/05/29 00:42:57;;;;;;;;;;;;;;;9.77;100.00;100061.59;5010888;28;19988;-80
2021/05/29 00:45:29;;;;;;;;;;;;;;;9.74;100.00;100067.19;5006916;28;19933;-80
2021/05/29 00:48:00;;;;;;;;;;;;;;;9.56;100.00;100069.13;5019176;28;19966;-80
2021/05/29 00:50:28;;;;;;;;;;;;;;;9.47;100.00;100063.06;4994858;28;19933;-80
2021/05/29 00:52:57;;;;;;;;;;;;;;;9.40;100.00;100071.44;4983040;28;19926;-80
2021/05/29 00:55:28;;;;;;;;;;;;;;;9.36;100.00;100067.84;5010037;28;19926;-80
2021/05/29 00:57:56;;;;;;;;;;;;;;;9.34;100.00;100075.78;5027428;28;19968;-80
2021/05/29 01:00:24;;;;;;;;;;;;;;;9.33;100.00;100079.78;4996511;28;19925;-80
2021/05/29 01:02:52;;;;;;;;;;;;;;;9.39;100.00;100083.78;5024973;28;19926;-80
2021/05/29 01:05:22;;;;;;;;;;;;;;;9.31;100.00;100091.31;4996329;28;19972;-80
2021/05/29 01:07:51;;;;;;;;;;;;;;;9.10;100.00;100094.78;4984678;28;19972;-80
2021/05/29 01:10:20;;;;;;;;;;;;;;;8.85;100.00;100091.03;4993343;28;19929;-80
2021/05/29 01:12:48;;;;;;;;;;;;;;;8.70;100.00;100264.88;4995014;28;20000;-80
2021/05/29 01:15:18;;;;;;;;;;;;;;;8.80;100.00;100314.34;5010095;28;19926;-80
2021/05/29 01:17:47;;;;;;;;;;;;;;;8.69;100.00;100324.56;4996093;28;20336;-80
2021/05/29 01:20:19;;;;;;;;;;;;;;;8.61;100.00;100330.44;4995120;28;19926;-80
2021/05/29 01:22:49;;;;;;;;;;;;;;;8.53;100.00;100337.91;5010697;28;20262;-80
2021/05/29 01:25:31;;;;;;;;;;;;;;;8.63;100.00;100353.94;5023969;28;19929;-80
2021/05/29 01:28:02;;;;;;;;;;;;;;;8.52;100.00;100352.22;4996072;28;20467;-80
2021/05/29 01:30:45;;;;;;;;;;;;;;;8.47;100.00;100355.31;4978070;28;19937;-80
2021/05/29 01:33:14;;;;;;;;;;;;;;;8.38;100.00;100368.75;4993721;28;19926;-81
2021/05/29 01:35:44;;;;;;;;;;;;;;;8.37;100.00;100381.88;4995347;28;19948;-80
2021/05/29 01:38:14;;;;;;;;;;;;;;;8.40;100.00;100378.34;4988408;28;20588;-78
2021/05/29 01:40:42;;;;;;;;;;;;;;;8.34;100.00;100390.19;4991840;28;19941;-81
2021/05/29 01:43:11;;;;;;;;;;;;;;;8.24;100.00;100391.63;4979773;28;20385;-80
2021/05/29 01:45:39;;;;;;;;;;;;;;;8.18;100.00;100397.88;4988457;28;19980;-80
2021/05/29 01:48:08;;;;;;;;;;;;;;;8.17;100.00;100404.63;4994710;28;19930;-80
2021/05/29 01:50:49;;;;;;;;;;;;;;;8.04;100.00;100406.81;5009951;28;19984;-80
2021/05/29 01:53:24;;;;;;;;;;;;;;;8.08;100.00;100410.47;5009470;28;19933;-80
2021/05/29 01:55:52;;;;;;;;;;;;;;;8.10;100.00;100413.69;5009921;28;19958;-80
2021/05/29 01:58:21;;;;;;;;;;;;;;;8.12;100.00;100416.88;4993669;28;20339;-80
2021/05/29 02:00:49;;;;;;;;;;;;;;;8.23;100.00;100417.06;5025588;28;19952;-80
2021/05/29 02:03:17;;;;;;;;;;;;;;;8.15;100.00;100418.91;5009508;28;19926;-80
2021/05/29 02:05:44;;;;;;;;;;;;;;;8.09;100.00;100417.63;5026212;28;20344;-79
2021/05/29 02:08:13;;;;;;;;;;;;;;;8.01;100.00;100413.13;4990248;28;19938;-80
2021/05/29 02:10:41;;;;;;;;;;;;;;;7.79;100.00;100402.84;4984370;28;19930;-80
2021/05/29 02:13:10;;;;;;;;;;;;;;;7.75;100.00;100402.00;4987330;28;19925;-80
2021/05/29 02:15:39;;;;;;;;;;;;;;;7.66;100.00;100392.28;4993802;28;19925;-80
2021/05/29 02:18:07;;;;;;;;;;;;;;;7.57;100.00;100395.31;4993188;28;19965;-79
2021/05/29 02:20:42;;;;;;;;;;;;;;;7.34;100.00;100387.00;4991095;28;19937;-80
2021/05/29 02:23:10;;;;;;;;;;;;;;;7.30;100.00;100401.97;4990146;28;19925;-80
2021/05/29 02:25:37;;;;;;;;;;;;;;;7.33;100.00;100396.47;4991906;28;20365;-80
2021/05/29 02:28:05;;;;;;;;;;;;;;;7.44;100.00;100396.66;5010555;28;19930;-80
2021/05/29 02:30:32;;;;;;;;;;;;;;;7.56;100.00;100410.38;4994034;28;19933;-80
2021/05/29 02:32:59;;;;;;;;;;;;;;;7.56;100.00;100404.81;4993011;28;19933;-80
2021/05/29 02:35:26;;;;;;;;;;;;;;;7.70;100.00;100413.41;4995429;28;19969;-80
2021/05/29 02:37:54;;;;;;;;;;;;;;;7.77;100.00;100416.31;4994310;28;19930;-80
2021/05/29 02:40:22;;;;;;;;;;;;;;;7.72;100.00;100422.22;5009447;28;19925;-80
2021/05/29 02:42:50;;;;;;;;;;;;;;;7.53;100.00;100408.34;4991916;28;20364;-80
2021/05/29 02:45:19;;;;;;;;;;;;;;;7.48;100.00;100414.25;5009330;28;20380;-80
2021/05/29 02:47:46;;;;;;;;;;;;;;;7.39;100.00;100408.13;4993868;28;20061;-80
2021/05/29 02:50:14;;;;;;;;;;;;;;;7.54;100.00;100415.53;5018920;28;19937;-80
2021/05/29 02:52:41;;;;;;;;;;;;;;;7.71;100.00;100423.38;4992004;28;20016;-80
2021/05/29 02:55:11;;;;;;;;;;;;;;;7.91;100.00;100438.81;4993344;28;19933;-80
2021/05/29 02:57:39;;;;;;;;;;;;;;;7.97;100.00;100437.31;4992876;28;20647;-80
2021/05/29 03:00:08;;;;;;;;;;;;;;;8.03;100.00;100451.72;4993482;28;20415;-80
2021/05/29 03:02:35;;;;;;;;;;;;;;;8.04;100.00;100454.13;4993391;28;20408;-79
2021/05/29 03:05:04;;;;;;;;;;;;;;;8.00;100.00;100455.25;4992254;28;19980;-79
2021/05/29 03:07:33;;;;;;;;;;;;;;;8.00;100.00;100450.50;4979635;28;19926;-80
2021/05/29 03:10:06;;;;;;;;;;;;;;;8.00;100.00;100458.03;5013285;28;19933;-80
2021/05/29 03:12:35;;;;;;;;;;;;;;;8.03;100.00;100458.09;4974087;28;19926;-80
2021/05/29 03:15:03;;;;;;;;;;;;;;;8.08;100.00;100463.34;5003826;28;20369;-80
2021/05/29 03:17:31;;;;;;;;;;;;;;;8.15;100.00;100469.03;4987888;28;19933;-80
2021/05/29 03:19:58;;;;;;;;;;;;;;;8.19;100.00;100467.13;4993582;28;20004;-80
2021/05/29 03:22:25;;;;;;;;;;;;;;;8.22;100.00;100471.97;4988108;28;19934;-80
2021/05/29 03:24:52;;;;;;;;;;;;;;;8.27;100.00;100471.63;4988530;28;19926;-80
2021/05/29 03:27:19;;;;;;;;;;;;;;;8.25;100.00;100482.38;4980718;28;19948;-80
2021/05/29 03:29:47;;;;;;;;;;;;;;;8.34;100.00;100493.22;4992392;28;19926;-80
2021/05/29 03:32:14;;;;;;;;;;;;;;;8.40;100.00;100489.75;5008761;28;20016;-80
2021/05/29 03:34:42;;;;;;;;;;;;;;;8.45;100.00;100492.19;4993305;28;19926;-80
2021/05/29 03:37:09;;;;;;;;;;;;;;;8.62;100.00;100496.41;4993031;28;20016;-80
2021/05/29 03:39:39;;;;;;;;;;;;;;;8.55;100.00;100493.53;4993440;28;19925;-80
2021/05/29 03:42:07;;;;;;;;;;;;;;;8.42;100.00;100494.94;4991558;28;19929;-80
2021/05/29 03:44:34;;;;;;;;;;;;;;;8.28;100.00;100489.16;5009041;28;19929;-80
2021/05/29 03:47:01;;;;;;;;;;;;;;;8.22;100.00;100493.41;4992082;28;20392;-80
2021/05/29 03:49:28;;;;;;;;;;;;;;;8.11;100.00;100495.19;4992574;28;20380;-80
2021/05/29 03:51:56;;;;;;;;;;;;;;;8.12;100.00;100494.84;4994177;28;20274;-80
2021/05/29 03:54:23;;;;;;;;;;;;;;;8.10;100.00;100502.78;4995457;28;19932;-80
2021/05/29 03:56:50;;;;;;;;;;;;;;;8.18;100.00;100512.81;5007034;28;20025;-80
2021/05/29 03:59:20;;;;;;;;;;;;;;;8.33;100.00;100511.91;5011456;28;20456;-80
2021/05/29 04:01:47;;;;;;;;;;;;;;;8.44;100.00;100518.47;4998013;28;20015;-80
2021/05/29 04:04:14;;;;;;;;;;;;;;;8.54;100.00;100523.38;4995902;28;20270;-80
2021/05/29 04:06:41;;;;;;;;;;;;;;;8.71;100.00;100531.19;5028623;28;19932;-80
2021/05/29 04:09:10;;;;;;;;;;;;;;;8.84;100.00;100535.41;4996074;28;20380;-80
2021/05/29 04:11:38;;;;;;;;;;;;;;;8.91;100.00;100537.47;4995371;28;19926;-80
2021/05/29 04:14:06;;;;;;;;;;;;;;;8.82;100.00;100540.53;4996909;28;19968;-80
2021/05/29 04:16:34;;;;;;;;;;;;;;;8.79;100.00;100535.72;5029170;28;20085;-80
2021/05/29 04:19:01;;;;;;;;;;;;;;;8.89;100.00;100539.84;4995731;28;19932;-80
2021/05/29 04:21:28;;;;;;;;;;;;;;;8.90;100.00;100542.25;4996682;28;19926;-81
2021/05/29 04:23:55;;;;;;;;;;;;;;;8.78;100.00;100550.03;5028245;28;19929;-80
2021/05/29 04:26:23;;;;;;;;;;;;;;;8.83;100.00;100558.84;5011373;28;20016;-80
2021/05/29 04:28:50;;;;;;;;;;;;;;;8.96;100.00;100563.03;4997173;28;19926;-80
2021/05/29 04:31:18;;;;;;;;;;;;;;;9.13;100.00;100565.25;4995881;28;19973;-81
2021/05/29 04:33:45;;;;;;;;;;;;;;;9.32;100.00;100574.66;5011257;28;19934;-80
2021/05/29 04:36:13;;;;;;;;;;;;;;;9.35;100.00;100569.13;4995121;28;19925;-80
2021/05/29 04:38:40;;;;;;;;;;;;;;;9.46;100.00;100574.84;4995113;28;19965;-80
2021/05/29 04:41:07;;;;;;;;;;;;;;;9.45;100.00;100579.59;5003548;28;19985;-80
2021/05/29 04:43:34;;;;;;;;;;;;;;;9.34;100.00;100569.50;4995763;28;20029;-80
2021/05/29 04:46:02;;;;;;;;;;;;;;;9.15;100.00;100565.69;4995132;28;20289;-80
2021/05/29 04:48:29;;;;;;;;;;;;;;;8.98;100.00;100569.03;4996360;28;19925;-80
2021/05/29 04:51:12;;;;;;;;;;;;;;;8.83;100.00;100564.44;4995852;28;19929;-80
2021/05/29 04:53:43;;;;;;;;;;;;;;;9.00;100.00;100566.66;4996143;28;20015;-80
2021/05/29 04:56:10;;;;;;;;;;;;;;;9.09;100.00;100564.41;4995691;28;19925;-80
2021/05/29 04:58:38;;;;;;;;;;;;;;;9.13;100.00;100578.41;4996313;28;19937;-80
2021/05/29 05:01:06;;;;;;;;;;;;;;;9.18;100.00;100586.44;4994964;28;19936;-80
2021/05/29 05:03:34;;;;;;;;;;;;;;;9.18;100.00;100595.59;4996161;28;19926;-80
2021/05/29 05:06:03;;;;;;;;;;;;;;;9.09;100.00;100594.28;4995283;28;19926;-80
2021/05/29 05:08:30;;;;;;;;;;;;;;;9.07;100.00;100603.00;4993821;28;19929;-80
2021/05/29 05:10:57;;;;;;;;;;;;;;;9.21;100.00;100610.00;5010743;28;19932;-81
2021/05/29 05:13:25;;;;;;;;;;;;;;;9.31;100.00;100612.09;5010947;28;19926;-80
2021/05/29 05:15:53;;;;;;;;;;;;;;;9.32;100.00;100619.28;4996097;28;19933;-80
2021/05/29 05:18:22;;;;;;;;;;;;;;;9.33;100.00;100621.69;4995017;28;19926;-80
2021/05/29 05:20:49;;;;;;;;;;;;;;;9.40;100.00;100626.56;5011253;28;19965;-80
2021/05/29 05:23:21;;;;;;;;;;;;;;;9.49;100.00;100627.09;5024562;28;20455;-81
2021/05/29 05:25:53;;;;;;;;;;;;;;;9.63;100.00;100641.25;4991987;28;19932;-80
2021/05/29 05:28:29;;;;;;;;;;;;;;;9.85;100.00;100637.50;4992333;28;19949;-80
2021/05/29 05:30:57;;;;;;;;;;;;;;;10.21;100.00;100650.72;5028656;28;19930;-80
2021/05/29 05:33:25;;;;;;;;;;;;;;;10.44;100.00;100654.16;4995406;28;19926;-80
2021/05/29 05:35:53;;;;;;;;;;;;;;;10.50;100.00;100653.41;4995307;28;19926;-80
2021/05/29 05:38:21;;;;;;;;;;;;;;;10.55;100.00;100652.25;4993868;28;19961;-80
2021/05/29 05:40:48;;;;;;;;;;;;;;;10.74;100.00;100652.00;4994256;28;20036;-80
2021/05/29 05:43:16;;;;;;;;;;;;;;;10.87;100.00;100656.13;5010572;28;19953;-80
2021/05/29 05:45:43;;;;;;;;;;;;;;;10.98;100.00;100641.03;4990575;28;19959;-80
2021/05/29 05:48:10;;;;;;;;;;;;;;;11.17;100.00;100636.34;4985950;28;20399;-80
2021/05/29 05:50:52;;;;;;;;;;;;;;;11.40;100.00;100646.13;4995038;28;19958;-81
2021/05/29 05:53:23;;;;;;;;;;;;;;;11.61;100.00;100640.63;4995142;28;19930;-81
2021/05/29 05:55:55;;;;;;;;;;;;;;;11.92;100.00;100650.38;4995104;28;19930;-80
2021/05/29 05:58:22;;;;;;;;;;;;;;;12.06;100.00;100650.41;5027668;28;19948;-80
2021/05/29 06:00:49;;;;;;;;;;;;;;;12.10;100.00;100635.22;5025300;28;19926;-81
2021/05/29 06:03:17;;;;;;;;;;;;;;;12.38;100.00;100629.69;5027345;28;19929;-81
2021/05/29 06:05:44;;;;;;;;;;;;;;;12.63;100.00;100619.28;4961805;28;19925;-80
2021/05/29 06:08:11;;;;;;;;;;;;;;;12.73;100.00;100601.69;4995266;28;19933;-81
2021/05/29 06:10:38;;;;;;;;;;;;;;;12.91;100.00;100590.41;5012807;28;19948;-81
2021/05/29 06:13:11;;;;;;;;;;;;;;;12.69;100.00;100575.59;5027235;28;19926;-81
2021/05/29 06:21:09;;;;;;;;;;;;;;;11.92;100.00;100516.72;5002944;28;20004;-80
2021/05/29 06:23:37;;;;;;;;;;;;;;;12.34;100.00;100507.56;4994227;28;19934;-81
2021/05/29 06:26:06;;;;;;;;;;;;;;;12.65;100.00;100501.91;4992208;28;21847;-81
2021/05/29 06:28:33;;;;;;;;;;;;;;;12.94;100.00;100494.22;4993291;28;20384;-80
2021/05/29 06:31:04;;;;;;;;;;;;;;;13.13;100.00;100484.59;5024834;28;19932;-81
2021/05/29 06:33:31;;;;;;;;;;;;;;;13.48;100.00;100461.97;5009274;28;19984;-81
2021/05/29 06:35:58;;;;;;;;;;;;;;;13.73;100.00;100451.38;4993554;28;19930;-81
2021/05/29 06:38:26;;;;;;;;;;;;;;;14.24;100.00;100431.69;5008835;28;19926;-81
2021/05/29 06:40:53;;;;;;;;;;;;;;;14.94;100.00;100407.63;4994010;28;20365;-80
2021/05/29 06:43:20;;;;;;;;;;;;;;;15.36;100.00;100365.63;5025292;28;20394;-81
2021/05/29 06:45:48;;;;;;;;;;;;;;;15.51;100.00;100338.09;4993048;28;19925;-81
2021/05/29 06:48:18;;;;;;;;;;;;;;;15.59;100.00;100303.75;5025925;28;19926;-81
2021/05/29 06:50:52;;;;;;;;;;;;;;;15.61;100.00;100160.44;5026259;28;19926;-81
2021/05/29 06:53:39;;;;;;;;;;;;;;;15.67;100.00;100138.19;4994966;28;20375;-82
2021/05/29 06:58:53;;;;;;;;;;;;;;;15.00;100.00;100114.03;4993773;28;19926;-81
2021/05/29 07:01:22;;;;;;;;;;;;;;;15.00;100.00;100116.88;4976891;28;20399;-81
2021/05/29 07:03:49;;;;;;;;;;;;;;;14.72;100.00;100114.53;5007147;28;19926;-81
2021/05/29 07:06:16;;;;;;;;;;;;;;;14.97;100.00;100108.47;4994321;28;19948;-81
2021/05/29 07:08:44;;;;;;;;;;;;;;;15.30;100.00;100105.47;4993081;28;19926;-81
2021/05/29 07:11:11;;;;;;;;;;;;;;;15.61;100.00;100104.09;5025714;28;19926;-81
2021/05/29 07:13:38;;;;;;;;;;;;;;;16.13;100.00;100099.34;5024996;28;20024;-81
2021/05/29 07:16:05;;;;;;;;;;;;;;;16.53;100.00;100088.78;5009120;28;20023;-81
2021/05/29 07:18:39;;;;;;;;;;;;;;;16.39;100.00;100085.50;4994148;28;19957;-81
2021/05/29 07:21:07;;;;;;;;;;;;;;;16.13;100.00;100079.63;4989941;28;19937;-81
2021/05/29 07:23:34;;;;;;;;;;;;;;;15.78;100.00;100069.09;4991605;28;19949;-81
2021/05/29 07:26:01;;;;;;;;;;;;;;;15.64;100.00;100063.78;4993733;28;20389;-81
2021/05/29 07:28:28;;;;;;;;;;;;;;;15.48;100.00;100065.75;5008385;28;20012;-80
2021/05/29 07:30:56;;;;;;;;;;;;;;;15.74;100.00;100074.03;4990703;28;19926;-83
2021/05/29 07:33:24;;;;;;;;;;;;;;;15.87;100.00;100077.75;4983168;28;19933;-81
2021/05/29 07:35:52;;;;;;;;;;;;;;;16.05;100.00;100077.41;5016700;28;20055;-81
2021/05/29 07:38:19;;;;;;;;;;;;;;;16.01;100.00;100068.22;4993420;28;19925;-82
2021/05/29 07:40:46;;;;;;;;;;;;;;;15.48;100.00;100066.50;5026612;28;19926;-81
2021/05/29 07:43:14;;;;;;;;;;;;;;;15.02;100.00;100072.19;4993551;28;19964;-82
2021/05/29 07:45:41;;;;;;;;;;;;;;;14.80;100.00;100076.59;4987264;28;19926;-82
2021/05/29 07:48:09;;;;;;;;;;;;;;;15.03;100.00;100085.03;4992726;28;19933;-82
2021/05/29 07:50:57;;;;;;;;;;;;;;;15.15;100.00;100090.06;4994221;28;19926;-82
2021/05/29 07:53:25;;;;;;;;;;;;;;;15.25;100.00;100094.69;4993849;28;19972;-83
2021/05/29 07:55:52;;;;;;;;;;;;;;;15.42;100.00;100090.78;5022730;28;20012;-82
2021/05/29 07:58:19;;;;;;;;;;;;;;;15.70;100.00;100089.41;4993103;28;19933;-82
2021/05/29 08:00:50;;;;;;;;;;;;;;;16.10;100.00;100090.97;4990992;28;19930;-82
2021/05/29 08:03:19;;;;;;;;;;;;;;;16.61;100.00;100080.97;4983035;28;19930;-82
2021/05/29 08:05:47;;;;;;;;;;;;;;;17.09;100.00;100083.75;4989602;28;20007;-82
2021/05/29 08:08:14;;;;;;;;;;;;;;;17.37;100.00;100088.66;4986258;28;20032;-82
2021/05/29 08:10:45;;;;;;;;;;;;;;;17.58;100.00;100085.28;5023025;28;19926;-82
2021/05/29 08:13:12;;;;;;;;;;;;;;;17.49;100.00;100076.66;5005535;28;19945;-83
2021/05/29 08:15:40;;;;;;;;;;;;;;;16.76;100.00;100082.19;4983771;28;19969;-81
2021/05/29 08:18:08;;;;;;;;;;;;;;;17.03;100.00;100091.16;4992731;28;19936;-81
2021/05/29 08:20:36;;;;;;;;;;;;;;;17.12;100.00;100091.34;4993397;28;19932;-82
2021/05/29 08:23:04;;;;;;;;;;;;;;;17.07;100.00;100091.91;4993818;28;19925;-81
2021/05/29 08:25:32;;;;;;;;;;;;;;;16.83;100.00;100093.28;4987917;28;19926;-83
2021/05/29 08:27:59;;;;;;;;;;;;;;;16.29;100.00;100095.78;4992417;28;19980;-81
2021/05/29 08:30:27;;;;;;;;;;;;;;;16.21;100.00;100097.97;4991476;28;20025;-81
2021/05/29 08:32:54;;;;;;;;;;;;;;;16.27;100.00;100106.69;4972562;28;19933;-82
2021/05/29 08:35:22;;;;;;;;;;;;;;;16.32;100.00;100105.38;5006591;28;19936;-82
2021/05/29 08:37:50;;;;;;;;;;;;;;;15.87;100.00;100105.94;4991801;28;20292;-81
2021/05/29 08:40:18;;;;;;;;;;;;;;;15.89;100.00;100109.13;4993710;28;19937;-82
2021/05/29 08:42:47;;;;;;;;;;;;;;;15.85;100.00;100114.06;4995603;28;19926;-82
2021/05/29 08:45:16;;;;;;;;;;;;;;;15.60;100.00;100125.03;4997616;28;19925;-82
2021/05/29 08:47:45;;;;;;;;;;;;;;;15.79;100.00;100118.63;5011903;28;19936;-82
2021/05/29 08:50:13;;;;;;;;;;;;;;;15.82;100.00;100109.28;5006148;28;20264;-81
2021/05/29 08:52:40;;;;;;;;;;;;;;;15.79;100.00;100121.44;4995542;28;20005;-82
2021/05/29 08:55:09;;;;;;;;;;;;;;;16.08;100.00;100116.00;4988691;28;20025;-81
2021/05/29 08:57:36;;;;;;;;;;;;;;;16.05;100.00;100120.47;4996613;28;20372;-82
2021/05/29 09:00:05;;;;;;;;;;;;;;;16.14;100.00;100123.50;4976906;28;20005;-85
2021/05/29 09:02:34;;;;;;;;;;;;;;;16.08;100.00;100116.00;5025398;28;19934;-84
2021/05/29 09:05:08;;;;;;;;;;;;;;;16.02;100.00;100118.50;5012107;28;19948;-83
2021/05/29 09:07:42;;;;;;;;;;;;;;;15.67;100.00;100119.28;5026186;28;20528;-83
2021/05/29 09:10:15;;;;;;;;;;;;;;;15.73;100.00;100133.63;5018354;28;19925;-84
2021/05/29 09:13:02;;;;;;;;;;;;;;;15.55;100.00;100134.00;4979206;28;19932;-82
2021/05/29 09:15:39;;;;;;;;;;;;;;;15.79;100.00;100124.25;5001938;28;20380;-82
2021/05/29 09:18:31;;;;;;;;;;;;;;;15.64;100.00;100128.59;4984736;28;20423;-82
2021/05/29 09:21:10;;;;;;;;;;;;;;;16.04;100.00;100121.69;4987078;28;19992;-83
2021/05/29 09:24:04;;;;;;;;;;;;;;;16.30;100.00;100127.59;4995915;28;20064;-82
2021/05/29 09:26:42;;;;;;;;;;;;;;;16.52;100.00;100123.09;5019374;28;19926;-83
2021/05/29 09:29:14;;;;;;;;;;;;;;;16.62;100.00;100122.03;5015955;28;19926;-82
2021/05/29 09:31:50;;;;;;;;;;;;;;;16.35;100.00;100127.06;4995021;28;19930;-80
2021/05/29 09:34:29;;;;;;;;;;;;;;;16.46;100.00;100124.84;4994393;28;20297;-84
2021/05/29 09:37:04;;;;;;;;;;;;;;;16.11;100.00;100124.34;4998421;28;19926;-82
2021/05/29 09:39:31;;;;;;;;;;;;;;;16.00;100.00;100126.63;4995757;28;19926;-81
2021/05/29 09:41:59;;;;;;;;;;;;;;;15.93;100.00;100123.94;4994545;28;20020;-82
2021/05/29 09:44:28;;;;;;;;;;;;;;;16.21;100.00;100126.16;4986864;28;19933;-83
2021/05/29 09:46:56;;;;;;;;;;;;;;;16.68;100.00;100134.38;4986147;28;19933;-83
2021/05/29 09:49:25;;;;;;;;;;;;;;;16.12;100.00;100125.97;4989790;28;19926;-82
2021/05/29 09:51:53;;;;;;;;;;;;;;;16.14;100.00;100129.16;4987521;28;19973;-82
2021/05/29 09:54:23;;;;;;;;;;;;;;;16.09;100.00;100129.66;5010951;28;19937;-81
2021/05/29 09:57:00;;;;;;;;;;;;;;;16.46;100.00;100136.94;4989471;28;19930;-82
2021/05/29 09:59:29;;;;;;;;;;;;;;;16.23;100.00;100135.00;4992777;28;19965;-82
2021/05/29 10:01:58;;;;;;;;;;;;;;;16.50;100.00;100143.28;5010469;28;19933;-81
2021/05/29 10:04:30;;;;;;;;;;;;;;;16.78;100.00;100139.00;4994216;28;19949;-82
2021/05/29 10:06:58;;;;;;;;;;;;;;;17.29;100.00;100138.09;4984771;28;20065;-82
2021/05/29 10:09:26;;;;;;;;;;;;;;;16.64;100.00;100142.16;4991676;28;19965;-81
2021/05/29 10:11:54;;;;;;;;;;;;;;;16.73;100.00;100143.16;4995124;28;20028;-82
2021/05/29 10:14:22;;;;;;;;;;;;;;;16.72;100.00;100146.41;4994477;28;20083;-82
2021/05/29 10:16:50;;;;;;;;;;;;;;;16.92;100.00;100130.19;4992965;28;19926;-82
2021/05/29 10:19:21;;;;;;;;;;;;;;;17.28;100.00;100142.19;4992159;28;20373;-82
2021/05/29 10:21:49;;;;;;;;;;;;;;;16.88;100.00;100141.56;4992276;28;20007;-84
2021/05/29 10:24:16;;;;;;;;;;;;;;;16.71;100.00;100150.44;5010329;28;19949;-84
2021/05/29 10:26:44;;;;;;;;;;;;;;;16.88;100.00;100141.56;5009378;28;19937;-83
2021/05/29 10:29:12;;;;;;;;;;;;;;;16.78;100.00;100144.66;4995111;28;20024;-85
2021/05/29 10:31:41;;;;;;;;;;;;;;;17.37;100.00;100145.16;4995919;28;19973;-88
2021/05/29 10:34:09;;;;;;;;;;;;;;;17.68;100.00;100146.34;4993615;28;19929;-86
2021/05/29 10:36:38;;;;;;;;;;;;;;;17.54;100.00;100146.72;4991012;28;19980;-87
2021/05/29 10:39:26;;;;;;;;;;;;;;;17.04;100.00;100143.59;4975326;28;19926;-86
2021/05/29 10:41:56;;;;;;;;;;;;;;;16.68;100.00;100148.50;4992243;28;20158;-86
2021/05/29 10:44:26;;;;;;;;;;;;;;;17.06;100.00;100146.75;4991331;28;19925;-86
2021/05/29 10:47:11;;;;;;;;;;;;;;;17.83;100.00;100147.53;4993804;28;20347;-86
2021/05/29 10:49:52;;;;;;;;;;;;;;;18.28;100.00;100147.44;5025550;28;19925;-86
2021/05/29 10:52:41;;;;;;;;;;;;;;;17.67;100.00;100139.94;4988938;28;20316;-86
2021/05/29 10:55:12;;;;;;;;;;;;;;;17.62;100.00;100139.66;5025079;28;20446;-86
2021/05/29 10:57:55;;;;;;;;;;;;;;;18.28;100.00;100125.59;4991368;28;20293;-85
2021/05/29 11:00:35;;;;;;;;;;;;;;;18.76;100.00;100128.16;4992636;28;20392;-85
2021/05/29 11:03:21;;;;;;;;;;;;;;;18.95;100.00;100129.16;5006175;28;19933;-85
2021/05/29 11:06:00;;;;;;;;;;;;;;;19.20;100.00;100124.25;5015344;28;20356;-86
2021/05/29 11:08:47;;;;;;;;;;;;;;;18.97;100.00;100127.47;4988566;28;19930;-86
2021/05/29 11:11:33;;;;;;;;;;;;;;;18.37;100.00;100127.78;4998410;28;20015;-86
2021/05/29 11:14:01;;;;;;;;;;;;;;;18.78;100.00;100136.19;4994487;28;20471;-86
2021/05/29 11:16:51;;;;;;;;;;;;;;;19.11;100.00;100129.84;4977733;28;19975;-86
2021/05/29 11:19:22;;;;;;;;;;;;;;;18.94;100.00;100128.38;4992011;28;19937;-86
2021/05/29 11:22:12;;;;;;;;;;;;;;;19.16;100.00;100129.22;5002233;28;20412;-86
2021/05/29 11:24:42;;;;;;;;;;;;;;;19.15;100.00;100133.31;4992973;28;19934;-85
2021/05/29 11:27:25;;;;;;;;;;;;;;;18.57;100.00;100136.88;4975629;28;19933;-85
2021/05/29 11:29:55;;;;;;;;;;;;;;;18.47;100.00;100130.31;5002086;28;19978;-85
2021/05/29 11:32:41;;;;;;;;;;;;;;;18.40;100.00;100135.38;4991645;28;19932;-86
2021/05/29 11:35:19;;;;;;;;;;;;;;;18.72;100.00;100129.53;4988032;28;19926;-84
2021/05/29 11:37:56;;;;;;;;;;;;;;;19.14;100.00;100125.28;5021887;28;19948;-85
2021/05/29 11:40:38;;;;;;;;;;;;;;;19.39;100.00;100126.03;5016857;28;20366;-84
2021/05/29 11:43:05;;;;;;;;;;;;;;;19.06;100.00;100121.91;4975343;28;19949;-84
2021/05/29 11:45:32;;;;;;;;;;;;;;;18.74;100.00;100115.69;4991306;28;19941;-84
2021/05/29 11:47:59;;;;;;;;;;;;;;;18.56;100.00;100130.41;4991495;28;19933;-84
2021/05/29 11:50:26;;;;;;;;;;;;;;;18.82;100.00;100132.00;4987712;28;20018;-85
2021/05/29 11:52:54;;;;;;;;;;;;;;;19.16;100.00;100120.72;4991572;28;20008;-84
2021/05/29 11:55:21;;;;;;;;;;;;;;;19.25;100.00;100132.16;4990937;28;19926;-85
2021/05/29 11:57:58;;;;;;;;;;;;;;;19.21;100.00;100125.84;5007444;28;19930;-84
2021/05/29 12:00:26;;;;;;;;;;;;;;;19.28;100.00;100124.84;4991919;28;19989;-84
2021/05/29 12:02:53;;;;;;;;;;;;;;;19.36;100.00;100121.28;4989098;28;19925;-84
2021/05/29 12:05:21;;;;;;;;;;;;;;;18.95;100.00;100121.44;4990483;28;20008;-84
2021/05/29 12:07:59;;;;;;;;;;;;;;;19.21;100.00;100125.03;4992881;28;19934;-84
2021/05/29 12:10:44;;;;;;;;;;;;;;;19.52;100.00;100129.63;5006951;28;20348;-85
2021/05/29 12:13:19;;;;;;;;;;;;;;;19.81;100.00;100120.09;4991113;28;19933;-85
2021/05/29 12:15:52;;;;;;;;;;;;;;;19.56;100.00;100130.28;4993864;28;20373;-84
2021/05/29 12:18:19;;;;;;;;;;;;;;;19.34;100.00;100131.50;5011312;28;19929;-85
2021/05/29 12:20:53;;;;;;;;;;;;;;;19.70;100.00;100138.28;5011097;28;19941;-85
2021/05/29 12:23:21;;;;;;;;;;;;;;;20.03;100.00;100137.91;4994332;28;19926;-84
2021/05/29 12:25:48;;;;;;;;;;;;;;;19.47;100.00;100144.38;4995328;28;20399;-84
2021/05/29 12:28:16;;;;;;;;;;;;;;;19.54;100.00;100141.28;4990138;28;19932;-85
2021/05/29 12:30:44;;;;;;;;;;;;;;;19.68;100.00;100137.97;4994899;28;19930;-85
2021/05/29 12:33:18;;;;;;;;;;;;;;;19.33;100.00;100144.06;5011501;28;19933;-84
2021/05/29 12:35:45;;;;;;;;;;;;;;;18.82;100.00;100151.84;4994768;28;20458;-84
2021/05/29 12:38:16;;;;;;;;;;;;;;;18.96;100.00;100148.50;4995854;28;20045;-84
2021/05/29 12:40:54;;;;;;;;;;;;;;;19.11;100.00;100149.66;4995361;28;19969;-85
2021/05/29 12:43:21;;;;;;;;;;;;;;;19.47;100.00;100138.72;5011192;28;20281;-84
2021/05/29 12:45:49;;;;;;;;;;;;;;;19.87;100.00;100152.28;4992200;28;19929;-84
2021/05/29 12:48:16;;;;;;;;;;;;;;;20.04;100.00;100150.84;4994594;28;19929;-83
2021/05/29 12:50:59;;;;;;;;;;;;;;;20.36;100.00;100142.72;4996225;28;19926;-86
2021/05/29 12:53:28;;;;;;;;;;;;;;;20.14;100.00;100156.16;4970255;28;19932;-85